createdAt,value
2023-07-21T00:02:24.081Z,80.19
2023-07-21T00:04:50.757Z,80.31
2023-07-21T00:07:18.457Z,80.36
2023-07-21T00:09:45.535Z,80.48
2023-07-21T00:12:12.226Z,80.51
2023-07-21T00:14:38.826Z,80.42
2023-07-21T00:17:06.202Z,80.47
2023-07-21T00:19:32.812Z,80.75
2023-07-21T00:21:59.534Z,80.38
2023-07-21T00:24:26.239Z,80.39
2023-07-21T00:26:53.577Z,80.33
2023-07-21T00:29:20.201Z,80.69
2023-07-21T00:31:49.727Z,80.43
2023-07-21T00:34:16.297Z,80.75
2023-07-21T00:36:46.378Z,81.19
2023-07-21T00:39:14.011Z,80.88
2023-07-21T00:41:41.274Z,81.19
2023-07-21T00:44:09.648Z,80.82
2023-07-21T00:46:37.489Z,81.30
2023-07-21T00:49:05.823Z,81.40
2023-07-21T00:51:32.707Z,81.39
2023-07-21T00:54:00.844Z,81.17
2023-07-21T00:56:28.069Z,81.31
2023-07-21T00:58:55.144Z,81.59
2023-07-21T01:01:23.573Z,81.51
2023-07-21T01:03:51.515Z,81.61
2023-07-21T01:06:21.311Z,81.64
2023-07-21T01:08:50.352Z,81.65
2023-07-21T01:11:20.603Z,81.92
2023-07-21T01:13:50.975Z,82.15
2023-07-21T01:16:18.029Z,82.04
2023-07-21T01:19:04.095Z,82.25
2023-07-21T01:21:39.871Z,82.10
2023-07-21T01:24:17.027Z,82.22
2023-07-21T01:26:44.639Z,82.59
2023-07-21T01:29:11.952Z,82.24
2023-07-21T01:31:40.894Z,82.36
2023-07-21T01:34:10.399Z,82.47
2023-07-21T01:36:38.831Z,82.44
2023-07-21T01:39:07.536Z,82.42
2023-07-21T01:41:34.445Z,82.48
2023-07-21T01:44:01.798Z,82.42
2023-07-21T01:46:28.760Z,82.65
2023-07-21T01:48:55.863Z,82.71
2023-07-21T01:51:22.986Z,82.75
2023-07-21T01:53:56.495Z,82.90
2023-07-21T01:56:39.332Z,83.04
2023-07-21T01:59:11.239Z,82.77
2023-07-21T02:01:39.136Z,82.76
2023-07-21T02:04:06.034Z,82.99
2023-07-21T02:06:32.992Z,83.05
2023-07-21T02:08:59.893Z,83.11
2023-07-21T02:11:26.971Z,83.36
2023-07-21T02:14:20.480Z,83.13
2023-07-21T02:16:47.226Z,83.22
2023-07-21T02:19:15.094Z,83.53
2023-07-21T02:21:41.657Z,83.07
2023-07-21T02:24:08.321Z,83.05
2023-07-21T02:26:34.912Z,83.60
2023-07-21T02:29:01.606Z,83.48
2023-07-21T02:31:28.244Z,83.16
2023-07-21T02:33:54.909Z,83.31
2023-07-21T02:36:22.116Z,83.36
2023-07-21T02:38:49.045Z,83.23
2023-07-21T02:41:16.693Z,82.95
2023-07-21T02:43:43.419Z,83.34
2023-07-21T02:46:11.573Z,83.24
2023-07-21T02:48:38.206Z,83.10
2023-07-21T02:51:04.898Z,83.22
2023-07-21T02:53:35.208Z,83.21
2023-07-21T02:56:04.168Z,82.97
2023-07-21T02:58:32.876Z,82.87
2023-07-21T03:01:02.998Z,82.88
2023-07-21T03:03:32.940Z,82.88
2023-07-21T03:06:03.859Z,82.74
2023-07-21T03:08:30.712Z,82.70
2023-07-21T03:11:00.248Z,82.94
2023-07-21T03:13:28.699Z,82.90
2023-07-21T03:15:55.366Z,82.96
2023-07-21T03:18:28.174Z,82.99
2023-07-21T03:21:06.457Z,82.79
2023-07-21T03:23:33.512Z,82.82
2023-07-21T03:26:01.022Z,82.92
2023-07-21T03:28:32.363Z,82.79
2023-07-21T03:31:03.323Z,82.73
2023-07-21T03:33:36.133Z,82.61
2023-07-21T03:36:15.784Z,82.58
2023-07-21T03:38:42.458Z,82.65
2023-07-21T03:41:10.140Z,82.58
2023-07-21T03:43:40.041Z,82.60
2023-07-21T03:46:08.133Z,82.50
2023-07-21T03:48:53.415Z,82.68
2023-07-21T03:51:20.142Z,82.47
2023-07-21T03:53:47.336Z,82.55
2023-07-21T03:56:14.030Z,82.60
2023-07-21T03:58:40.586Z,82.50
2023-07-21T04:01:07.614Z,82.53
2023-07-21T04:03:34.421Z,82.57
2023-07-21T04:06:08.959Z,82.44
2023-07-21T04:08:35.878Z,82.42
2023-07-21T04:11:02.586Z,82.44
2023-07-21T04:13:29.195Z,82.46
2023-07-21T04:15:55.997Z,82.33
2023-07-21T04:18:23.925Z,82.42
2023-07-21T04:20:50.602Z,82.72
2023-07-21T04:23:19.094Z,82.66
2023-07-21T04:25:47.342Z,82.52
2023-07-21T04:28:14.838Z,82.32
2023-07-21T04:30:42.243Z,82.22
2023-07-21T04:33:10.124Z,82.33
2023-07-21T04:35:37.064Z,82.26
2023-07-21T04:38:08.125Z,82.25
2023-07-21T04:40:42.384Z,82.11
2023-07-21T04:43:09.194Z,82.13
2023-07-21T04:45:40.463Z,81.90
2023-07-21T04:48:10.866Z,82.24
2023-07-21T04:50:43.261Z,82.11
2023-07-21T04:53:11.244Z,82.13
2023-07-21T04:55:38.915Z,82.02
2023-07-21T04:58:08.800Z,82.25
2023-07-21T05:00:35.842Z,82.15
2023-07-21T05:03:02.843Z,82.01
2023-07-21T05:05:30.845Z,82.02
2023-07-21T05:08:00.659Z,81.90
2023-07-21T05:10:27.408Z,81.87
2023-07-21T05:12:55.689Z,81.64
2023-07-21T05:15:39.372Z,81.57
2023-07-21T05:18:28.768Z,81.43
2023-07-21T05:21:14.508Z,81.38
2023-07-21T05:23:45.542Z,81.48
2023-07-21T05:26:16.559Z,81.13
2023-07-21T05:28:43.336Z,81.00
2023-07-21T05:31:11.707Z,80.88
2023-07-21T05:33:52.193Z,80.73
2023-07-21T05:36:19.143Z,80.51
2023-07-21T05:38:46.168Z,80.49
2023-07-21T05:41:13.600Z,80.47
2023-07-21T05:43:40.228Z,80.24
2023-07-21T05:46:07.099Z,80.24
2023-07-21T05:48:34.951Z,80.35
2023-07-21T05:51:04.012Z,80.26
2023-07-21T05:53:30.701Z,80.15
2023-07-21T05:55:59.577Z,80.25
2023-07-21T05:58:46.025Z,80.24
2023-07-21T06:01:12.714Z,80.10
2023-07-21T06:03:39.426Z,80.06
2023-07-21T06:06:06.362Z,80.37
2023-07-21T06:08:53.068Z,80.31
2023-07-21T06:11:42.273Z,80.07
2023-07-21T06:14:22.664Z,80.17
2023-07-21T06:17:08.301Z,80.20
2023-07-21T06:19:36.120Z,80.17
2023-07-21T06:22:02.775Z,80.24
2023-07-21T06:24:30.501Z,80.24
2023-07-21T06:26:57.524Z,80.10
2023-07-21T06:29:24.293Z,80.14
2023-07-21T06:31:51.695Z,80.21
2023-07-21T06:34:24.807Z,80.27
2023-07-21T06:37:23.841Z,80.29
2023-07-21T06:40:10.009Z,80.35
2023-07-21T06:43:01.331Z,80.35
2023-07-21T06:45:40.492Z,80.38
2023-07-21T06:48:38.982Z,80.34
2023-07-21T06:51:16.447Z,80.35
2023-07-21T06:53:43.105Z,80.25
2023-07-21T06:56:12.518Z,80.33
2023-07-21T06:58:39.223Z,80.22
2023-07-21T07:01:08.096Z,80.20
2023-07-21T07:03:34.747Z,80.18
2023-07-21T07:06:01.498Z,80.34
2023-07-21T07:08:31.531Z,80.29
2023-07-21T07:10:58.578Z,80.35
2023-07-21T07:13:25.314Z,80.29
2023-07-21T07:15:53.363Z,80.47
2023-07-21T07:18:19.979Z,80.49
2023-07-21T07:20:51.108Z,80.45
2023-07-21T07:23:19.514Z,80.54
2023-07-21T07:25:51.767Z,80.77
2023-07-21T07:28:19.869Z,80.57
2023-07-21T07:30:48.220Z,80.58
2023-07-21T07:33:16.163Z,80.54
2023-07-21T07:35:49.107Z,80.50
2023-07-21T07:38:27.596Z,80.18
2023-07-21T07:40:54.529Z,80.06
2023-07-21T07:43:21.228Z,80.14
2023-07-21T07:45:48.270Z,79.82
2023-07-21T07:48:16.599Z,79.83
2023-07-21T07:50:44.761Z,79.70
2023-07-21T07:53:11.849Z,79.32
2023-07-21T07:55:42.204Z,79.21
2023-07-21T07:58:09.821Z,79.13
2023-07-21T08:00:39.454Z,78.98
2023-07-21T08:03:07.508Z,78.79
2023-07-21T08:05:38.644Z,78.61
2023-07-21T08:08:07.585Z,78.26
2023-07-21T08:10:35.301Z,78.02
2023-07-21T08:13:07.297Z,77.86
2023-07-21T08:15:34.198Z,77.55
2023-07-21T08:18:01.153Z,77.27
2023-07-21T08:20:27.896Z,75.76
2023-07-21T08:22:54.507Z,75.75
2023-07-21T08:25:21.163Z,75.27
2023-07-21T08:27:47.838Z,74.53
2023-07-21T08:30:15.913Z,73.04
2023-07-21T08:32:43.052Z,73.21
2023-07-21T08:35:10.298Z,73.24
2023-07-21T08:37:38.695Z,73.44
2023-07-21T08:40:07.246Z,73.21
2023-07-21T08:42:35.634Z,73.02
2023-07-21T08:45:07.366Z,72.51
2023-07-21T08:47:34.148Z,71.22
2023-07-21T08:50:03.717Z,70.09
2023-07-21T08:52:31.740Z,70.32
2023-07-21T08:54:58.493Z,70.09
2023-07-21T08:57:25.129Z,69.39
2023-07-21T08:59:55.511Z,69.32
2023-07-21T09:02:48.405Z,68.34
2023-07-21T09:05:18.251Z,66.77
2023-07-21T09:07:48.562Z,66.73
2023-07-21T09:10:34.216Z,67.09
2023-07-21T09:13:01.676Z,66.90
2023-07-21T09:15:28.538Z,66.66
2023-07-21T09:17:55.905Z,66.27
2023-07-21T09:20:22.571Z,65.40
2023-07-21T09:22:49.802Z,65.58
2023-07-21T09:25:23.065Z,64.86
2023-07-21T09:27:56.775Z,64.60
2023-07-21T09:30:23.926Z,63.33
2023-07-21T09:32:56.204Z,63.63
2023-07-21T09:35:22.935Z,63.53
2023-07-21T09:37:51.732Z,63.80
2023-07-21T09:40:27.584Z,63.74
2023-07-21T09:42:54.923Z,63.32
2023-07-21T09:45:22.027Z,63.01
2023-07-21T09:47:49.763Z,62.93
2023-07-21T09:50:16.400Z,61.71
2023-07-21T09:52:47.072Z,61.16
2023-07-21T09:55:17.277Z,61.82
2023-07-21T09:57:49.388Z,61.98
2023-07-21T10:00:18.834Z,62.03
2023-07-21T10:02:48.376Z,61.95
2023-07-21T10:05:15.219Z,61.82
2023-07-21T10:07:44.391Z,61.11
2023-07-21T10:10:11.940Z,60.97
2023-07-21T10:12:53.466Z,60.76
2023-07-21T10:15:31.341Z,60.38
2023-07-21T10:17:59.329Z,59.68
2023-07-21T10:20:44.045Z,60.06
2023-07-21T10:23:16.200Z,60.00
2023-07-21T10:25:51.881Z,59.73
2023-07-21T10:28:24.777Z,59.26
2023-07-21T10:30:52.980Z,59.25
2023-07-21T10:33:22.946Z,59.33
2023-07-21T10:35:49.782Z,58.85
2023-07-21T10:38:16.362Z,58.85
2023-07-21T10:40:44.971Z,58.74
2023-07-21T10:43:12.654Z,58.02
2023-07-21T10:45:39.852Z,58.60
2023-07-21T10:48:13.693Z,58.18
2023-07-21T10:50:41.340Z,57.87
2023-07-21T10:53:10.125Z,57.95
2023-07-21T10:55:38.792Z,57.57
2023-07-21T10:58:06.156Z,57.89
2023-07-21T11:00:50.453Z,57.93
2023-07-21T11:03:18.468Z,58.19
2023-07-21T11:05:45.771Z,57.99
2023-07-21T11:08:24.777Z,57.13
2023-07-21T11:10:51.457Z,57.74
2023-07-21T11:13:18.834Z,56.59
2023-07-21T11:15:55.531Z,56.87
2023-07-21T11:18:23.222Z,55.54
2023-07-21T11:20:54.177Z,56.02
2023-07-21T11:23:25.498Z,55.97
2023-07-21T11:26:10.487Z,56.38
2023-07-21T11:28:42.431Z,56.45
2023-07-21T11:31:16.284Z,55.56
2023-07-21T11:33:43.717Z,55.55
2023-07-21T11:36:15.530Z,55.42
2023-07-21T11:38:55.827Z,54.86
2023-07-21T11:41:40.627Z,54.12
2023-07-21T11:44:13.467Z,54.80
2023-07-21T11:46:40.605Z,54.25
2023-07-21T11:49:11.453Z,53.65
2023-07-21T11:51:45.840Z,54.21
2023-07-21T11:54:23.431Z,54.16
2023-07-21T11:56:52.430Z,53.76
2023-07-21T11:59:20.529Z,53.02
2023-07-21T12:01:47.778Z,53.45
2023-07-21T12:04:15.115Z,52.06
2023-07-21T12:06:41.792Z,52.33
2023-07-21T12:09:08.468Z,52.03
2023-07-21T12:11:35.086Z,52.09
2023-07-21T12:14:02.651Z,52.21
2023-07-21T12:16:32.704Z,52.63
2023-07-21T12:18:59.439Z,52.27
2023-07-21T12:21:26.378Z,52.81
2023-07-21T12:23:53.354Z,52.95
2023-07-21T12:26:20.173Z,52.05
2023-07-21T12:28:48.809Z,52.55
2023-07-21T12:31:16.307Z,52.96
2023-07-21T12:33:45.070Z,53.39
2023-07-21T12:36:14.977Z,53.09
2023-07-21T12:38:42.568Z,52.97
2023-07-21T12:41:09.619Z,53.34
2023-07-21T12:43:37.486Z,53.72
2023-07-21T12:46:04.891Z,53.75
2023-07-21T12:48:32.041Z,54.03
2023-07-21T12:50:58.850Z,53.99
2023-07-21T12:53:25.906Z,53.98
2023-07-21T12:55:52.831Z,54.46
2023-07-21T12:58:20.359Z,54.12
2023-07-21T13:00:47.087Z,54.49
2023-07-21T13:03:14.368Z,54.43
2023-07-21T13:05:54.514Z,54.47
2023-07-21T13:08:22.809Z,54.68
2023-07-21T13:10:49.541Z,54.62
2023-07-21T13:13:16.380Z,54.34
2023-07-21T13:15:43.824Z,54.57
2023-07-21T13:18:10.656Z,54.71
2023-07-21T13:20:39.932Z,54.96
2023-07-21T13:23:15.222Z,54.42
2023-07-21T13:25:47.458Z,54.66
2023-07-21T13:28:14.176Z,54.88
2023-07-21T13:30:40.820Z,54.92
2023-07-21T13:33:07.446Z,54.86
2023-07-21T13:35:36.065Z,54.85
2023-07-21T13:38:02.715Z,55.10
2023-07-21T13:40:29.288Z,55.34
2023-07-21T13:42:55.941Z,55.37
2023-07-21T13:45:22.536Z,55.15
2023-07-21T13:47:49.443Z,55.21
2023-07-21T13:50:16.221Z,55.21
2023-07-21T13:52:42.868Z,55.56
2023-07-21T13:55:09.613Z,55.45
2023-07-21T13:57:36.471Z,55.46
2023-07-21T14:00:06.309Z,55.45
2023-07-21T14:02:38.720Z,55.16
2023-07-21T14:05:05.987Z,55.52
2023-07-21T14:07:32.618Z,55.60
2023-07-21T14:09:59.269Z,55.57
2023-07-21T14:12:25.852Z,55.74
2023-07-21T14:14:52.561Z,55.80
2023-07-21T14:17:19.218Z,56.14
2023-07-21T14:19:46.267Z,56.11
2023-07-21T14:22:13.124Z,56.19
2023-07-21T14:24:39.774Z,56.05
2023-07-21T14:27:06.627Z,56.01
2023-07-21T14:29:34.525Z,55.68
2023-07-21T14:32:01.285Z,55.98
2023-07-21T14:34:27.898Z,56.02
2023-07-21T14:36:54.494Z,56.02
2023-07-21T14:39:21.542Z,56.34
2023-07-21T14:41:48.180Z,56.43
2023-07-21T14:44:15.697Z,56.40
2023-07-21T14:46:42.625Z,56.51
2023-07-21T14:49:09.361Z,56.55
2023-07-21T14:51:37.882Z,56.58
2023-07-21T14:54:06.358Z,56.57
2023-07-21T14:56:33.190Z,56.68
2023-07-21T14:59:00.950Z,56.91
2023-07-21T15:01:27.988Z,56.98
2023-07-21T15:03:54.848Z,57.43
2023-07-21T15:06:21.707Z,57.60
2023-07-21T15:08:48.507Z,57.81
2023-07-21T15:11:18.108Z,57.97
2023-07-21T15:13:45.784Z,58.23
2023-07-21T15:16:12.364Z,58.47
2023-07-21T15:18:39.103Z,58.56
2023-07-21T15:21:05.726Z,58.73
2023-07-21T15:23:32.545Z,58.97
2023-07-21T15:25:59.110Z,59.23
2023-07-21T15:30:19.605Z,59.48
2023-07-21T15:32:46.932Z,59.51
2023-07-21T15:35:13.620Z,59.58
2023-07-21T15:37:40.763Z,59.85
2023-07-21T15:40:12.533Z,59.97
2023-07-21T15:42:42.909Z,60.05
2023-07-21T15:45:11.857Z,60.18
2023-07-21T15:47:38.728Z,60.21
2023-07-21T15:50:11.162Z,60.34
2023-07-21T15:52:41.301Z,60.60
2023-07-21T15:55:11.362Z,60.69
2023-07-21T15:57:39.218Z,60.63
2023-07-21T16:00:14.009Z,60.74
2023-07-21T16:02:41.488Z,60.97
2023-07-21T16:05:08.934Z,61.03
2023-07-21T16:07:35.594Z,61.14
2023-07-21T16:10:04.753Z,61.45
2023-07-21T16:12:32.047Z,61.51
2023-07-21T16:14:59.076Z,61.71
2023-07-21T16:17:26.042Z,61.58
2023-07-21T16:19:52.924Z,61.73
2023-07-21T16:22:19.781Z,61.78
2023-07-21T16:24:46.489Z,62.00
2023-07-21T16:27:13.332Z,62.04
2023-07-21T16:29:40.214Z,62.07
2023-07-21T16:32:07.279Z,62.06
2023-07-21T16:34:35.411Z,62.18
2023-07-21T16:37:02.506Z,62.15
2023-07-21T16:39:29.889Z,62.23
2023-07-21T16:41:56.668Z,62.35
2023-07-21T16:44:24.282Z,62.43
2023-07-21T16:46:51.177Z,62.41
2023-07-21T16:49:18.666Z,62.57
2023-07-21T16:51:45.380Z,62.68
2023-07-21T16:54:12.319Z,62.85
2023-07-21T16:56:38.882Z,62.92
2023-07-21T16:59:05.467Z,63.11
2023-07-21T17:01:32.254Z,63.18
2023-07-21T17:03:59.004Z,63.37
2023-07-21T17:06:25.756Z,63.58
2023-07-21T17:08:52.424Z,63.54
2023-07-21T17:11:19.158Z,63.63
2023-07-21T17:13:45.879Z,63.83
2023-07-21T17:16:12.613Z,64.10
2023-07-21T17:18:39.252Z,64.00
2023-07-21T17:21:05.902Z,63.96
2023-07-21T17:23:32.652Z,64.25
2023-07-21T17:26:04.267Z,64.21
2023-07-21T17:28:32.158Z,64.25
2023-07-21T17:31:03.172Z,64.48
2023-07-21T17:33:30.262Z,64.54
2023-07-21T17:35:57.125Z,64.76
2023-07-21T17:38:25.850Z,64.72
2023-07-21T17:40:59.763Z,64.77
2023-07-21T17:43:27.584Z,64.83
2023-07-21T17:45:55.549Z,64.86
2023-07-21T17:48:25.718Z,65.00
2023-07-21T17:50:54.332Z,65.03
2023-07-21T17:53:22.405Z,65.24
2023-07-21T17:55:49.143Z,65.30
2023-07-21T17:58:17.255Z,65.39
2023-07-21T18:00:44.949Z,65.37
2023-07-21T18:03:13.032Z,65.34
2023-07-21T18:05:40.226Z,65.49
2023-07-21T18:08:07.745Z,65.49
2023-07-21T18:10:35.036Z,65.60
2023-07-21T18:13:02.476Z,65.76
2023-07-21T18:15:37.246Z,65.78
2023-07-21T18:18:04.097Z,65.73
2023-07-21T18:20:34.322Z,65.86
2023-07-21T18:23:02.717Z,65.82
2023-07-21T18:25:29.367Z,65.96
2023-07-21T18:27:56.085Z,66.08
2023-07-21T18:30:23.045Z,66.36
2023-07-21T18:32:50.894Z,66.27
2023-07-21T18:35:20.021Z,66.52
2023-07-21T18:37:48.149Z,66.52
2023-07-21T18:40:16.105Z,66.64
2023-07-21T18:42:49.277Z,66.76
2023-07-21T18:45:19.865Z,66.88
2023-07-21T18:47:47.527Z,66.83
2023-07-21T18:50:14.753Z,66.95
2023-07-21T18:52:41.389Z,66.98
2023-07-21T18:55:09.252Z,66.96
2023-07-21T18:57:35.862Z,67.06
2023-07-21T19:00:05.112Z,67.10
2023-07-21T19:02:31.737Z,67.23
2023-07-21T19:04:58.495Z,67.11
2023-07-21T19:07:25.102Z,67.29
2023-07-21T19:09:53.430Z,67.33
2023-07-21T19:12:22.400Z,67.42
2023-07-21T19:14:49.284Z,67.41
2023-07-21T19:17:16.094Z,67.48
2023-07-21T19:19:44.989Z,67.55
2023-07-21T19:22:12.238Z,67.52
2023-07-21T19:24:38.997Z,67.73
2023-07-21T19:27:06.137Z,67.72
2023-07-21T19:29:32.868Z,67.85
2023-07-21T19:31:59.631Z,68.17
2023-07-21T19:34:29.533Z,68.17
2023-07-21T19:36:56.878Z,68.20
2023-07-21T19:39:23.542Z,68.22
2023-07-21T19:41:50.191Z,68.40
2023-07-21T19:44:17.017Z,68.44
2023-07-21T19:46:44.175Z,68.39
2023-07-21T19:49:12.559Z,68.25
2023-07-21T19:51:39.206Z,68.29
2023-07-21T19:54:06.827Z,68.26
2023-07-21T19:56:34.612Z,68.39
2023-07-21T19:59:03.404Z,68.47
2023-07-21T20:01:30.734Z,68.57
2023-07-21T20:03:57.541Z,68.70
2023-07-21T20:06:24.733Z,68.62
2023-07-21T20:08:51.362Z,68.70
2023-07-21T20:11:18.070Z,68.63
2023-07-21T20:13:44.658Z,68.73
2023-07-21T20:16:11.433Z,68.89
2023-07-21T20:18:38.069Z,68.99
2023-07-21T20:21:06.155Z,68.87
2023-07-21T20:23:34.614Z,68.97
2023-07-21T20:26:03.409Z,68.99
2023-07-21T20:28:30.698Z,68.96
2023-07-21T20:30:57.451Z,68.98
2023-07-21T20:33:24.645Z,69.08
2023-07-21T20:35:52.965Z,69.08
2023-07-21T20:38:19.549Z,69.10
2023-07-21T20:40:46.426Z,69.08
2023-07-21T20:43:13.165Z,69.23
2023-07-21T20:45:41.187Z,69.55
2023-07-21T20:48:08.976Z,69.40
2023-07-21T20:50:35.883Z,69.71
2023-07-21T20:53:02.773Z,69.95
2023-07-21T20:55:29.425Z,69.97
2023-07-21T20:57:56.118Z,69.91
2023-07-21T21:00:23.959Z,70.02
2023-07-21T21:02:53.830Z,70.15
2023-07-21T21:05:20.614Z,70.05
2023-07-21T21:07:47.634Z,70.11
2023-07-21T21:10:15.100Z,70.19
2023-07-21T21:12:42.020Z,70.20
2023-07-21T21:15:09.089Z,70.25
2023-07-21T21:17:35.790Z,70.18
2023-07-21T21:20:02.616Z,70.21
2023-07-21T21:22:29.401Z,70.38
2023-07-21T21:24:56.073Z,70.47
2023-07-21T21:27:22.827Z,70.47
2023-07-21T21:29:49.974Z,70.66
2023-07-21T21:32:16.639Z,70.54
2023-07-21T21:34:43.744Z,70.48
2023-07-21T21:37:10.345Z,70.66
2023-07-21T21:39:37.007Z,70.92
2023-07-21T21:42:04.068Z,71.06
2023-07-21T21:44:31.746Z,71.07
2023-07-21T21:46:58.520Z,71.49
2023-07-21T21:49:25.464Z,71.42
2023-07-21T21:51:52.147Z,71.34
2023-07-21T21:54:18.768Z,71.47
2023-07-21T21:56:45.437Z,72.09
2023-07-21T21:59:13.416Z,71.99
2023-07-21T22:01:40.076Z,72.05
2023-07-21T22:04:06.848Z,72.45
2023-07-21T22:06:33.619Z,72.43
2023-07-21T22:09:00.872Z,72.57
2023-07-21T22:11:28.114Z,72.84
2023-07-21T22:13:55.353Z,73.35
2023-07-21T22:16:23.293Z,74.13
2023-07-21T22:18:50.144Z,74.42
2023-07-21T22:21:16.749Z,74.47
2023-07-21T22:23:43.944Z,74.80
2023-07-21T22:26:10.548Z,75.11
2023-07-21T22:28:37.323Z,75.64
2023-07-21T22:31:14.988Z,76.51
2023-07-21T22:33:42.438Z,76.57
2023-07-21T22:36:10.553Z,76.76
2023-07-21T22:38:37.998Z,76.84
2023-07-21T22:41:05.719Z,76.74
2023-07-21T22:43:33.543Z,76.98
2023-07-21T22:46:00.290Z,76.98
2023-07-21T22:48:30.290Z,78.87
2023-07-21T22:50:56.968Z,78.95
2023-07-21T22:53:23.652Z,79.96
2023-07-21T22:55:52.541Z,82.00
2023-07-21T22:58:20.257Z,82.26
2023-07-21T23:00:47.034Z,83.35
2023-07-21T23:03:16.663Z,84.52
2023-07-21T23:05:44.597Z,84.44
2023-07-21T23:08:11.367Z,84.53
2023-07-21T23:10:38.211Z,84.86
2023-07-21T23:13:05.623Z,84.83
2023-07-21T23:15:32.811Z,85.41
2023-07-21T23:17:59.717Z,85.82
2023-07-21T23:20:26.521Z,86.32
2023-07-21T23:22:53.124Z,86.89
2023-07-21T23:25:19.723Z,87.31
2023-07-21T23:27:46.307Z,87.40
2023-07-21T23:30:16.722Z,87.06
2023-07-21T23:32:44.138Z,87.13
2023-07-21T23:35:13.242Z,86.49
2023-07-21T23:37:39.846Z,87.20
2023-07-21T23:40:10.502Z,87.41
2023-07-21T23:42:45.140Z,88.06
2023-07-21T23:45:13.383Z,87.33
2023-07-21T23:47:40.974Z,87.53
2023-07-21T23:50:09.055Z,87.51
2023-07-21T23:52:37.190Z,87.95
2023-07-21T23:55:04.280Z,87.80
2023-07-21T23:57:32.413Z,88.10
2023-07-21T23:59:59.145Z,87.68
